Terminal Aerodrome Forecast
Issued by NWS Wilmington, OH

Current Version | Previous Version | Graphics & Text | Print | Product List | Glossary On
Versions: 1 2 3 4 5 6 7 8 9 10 11 12 13 14 15 16 17 18 19 20 21 22 23 24 25 26 27
000
FTUS41 KILN 301700
TAFILN
TAF
KILN 301740Z 3018/3118 20010G18KT P6SM FEW040 SCT120
     FM302100 21011G19KT P6SM -SHRA VCTS BKN050CB OVC120
     FM310000 21006KT P6SM -SHRA BKN050 OVC120
     FM310300 22006KT 3SM -SHRA BR OVC012
     FM310900 21006KT 3SM -SHRA BR OVC008
     FM311200 21008KT 5SM BR VCSH OVC012
     FM311400 21010KT P6SM VCSH OVC018
     FM311600 21011KT P6SM -SHRA VCTS BKN025CB=

USA.gov is the U.S. government's official web portal to all federal, state and local government web resources and services.